Time;durP1;ratioP1;P1;durP2;ratioP2;P2;SDS_P1;SDS_P2;PMS_P1;PMS_P2;Temp;Humidity;BMP_temperature;BMP_pressure;BME280_temperature;BME280_humidity;BME280_pressure;Samples;Min_cycle;Max_cycle;Signal;HPM_P1;HPM_P2
2021/09/20 00:01:12;;;;;;;2.63;1.20;;;15.60;65.80;;;;;;5002174;28;20324;-80
2021/09/20 00:03:38;;;;;;;3.50;0.80;;;15.60;65.80;;;;;;4981211;28;20147;-79
2021/09/20 00:06:04;;;;;;;3.92;1.60;;;15.50;65.80;;;;;;4990849;28;20068;-79
2021/09/20 00:08:30;;;;;;;3.50;0.95;;;15.50;65.80;;;;;;4990414;28;20111;-79
2021/09/20 00:10:56;;;;;;;3.20;1.25;;;15.40;65.70;;;;;;5009221;28;20504;-79
2021/09/20 00:13:22;;;;;;;1.80;0.93;;;15.40;65.80;;;;;;4984250;28;20042;-80
2021/09/20 00:15:48;;;;;;;1.77;0.82;;;15.40;65.80;;;;;;4988437;28;20022;-79
2021/09/20 00:18:14;;;;;;;2.08;0.80;;;15.40;65.90;;;;;;4989408;28;20066;-80
2021/09/20 00:20:40;;;;;;;2.40;1.08;;;15.30;65.70;;;;;;4971402;28;20030;-79
2021/09/20 00:23:06;;;;;;;3.90;0.95;;;15.30;65.80;;;;;;4987222;28;20122;-80
2021/09/20 00:25:32;;;;;;;2.30;0.90;;;15.30;65.80;;;;;;4987666;28;20121;-80
2021/09/20 00:27:58;;;;;;;1.77;0.73;;;15.30;65.90;;;;;;4987970;28;20057;-80
2021/09/20 00:30:24;;;;;;;2.42;1.17;;;15.20;66.30;;;;;;5007874;28;20022;-78
2021/09/20 00:32:50;;;;;;;1.77;0.70;;;15.20;65.80;;;;;;4973339;28;20037;-79
2021/09/20 00:35:16;;;;;;;2.08;0.68;;;15.10;65.60;;;;;;4990195;28;20036;-79
2021/09/20 00:37:42;;;;;;;1.77;1.08;;;15.10;65.70;;;;;;5008748;28;20116;-78
2021/09/20 00:40:09;;;;;;;2.15;1.10;;;15.00;65.60;;;;;;5007438;28;20349;-79
2021/09/20 00:42:35;;;;;;;3.05;1.02;;;15.00;65.70;;;;;;4989763;28;20656;-79
2021/09/20 00:45:01;;;;;;;1.08;0.80;;;15.00;65.70;;;;;;4971208;28;20030;-79
2021/09/20 00:47:27;;;;;;;2.88;0.95;;;14.90;65.60;;;;;;4987251;28;20039;-79
2021/09/20 00:49:53;;;;;;;2.55;0.70;;;14.90;65.70;;;;;;4986885;28;20089;-79
2021/09/20 00:52:19;;;;;;;2.60;0.80;;;14.80;65.60;;;;;;4985817;28;20451;-81
2021/09/20 00:54:45;;;;;;;0.70;0.68;;;14.90;65.80;;;;;;4988212;28;20064;-78
2021/09/20 00:57:12;;;;;;;1.40;0.70;;;14.80;65.70;;;;;;5005753;28;20026;-79
2021/09/20 00:59:38;;;;;;;1.67;0.80;;;14.80;66.30;;;;;;4986335;28;20165;-80
2021/09/20 01:02:04;;;;;;;1.80;1.00;;;14.70;65.60;;;;;;4979642;28;20074;-79
2021/09/20 01:04:30;;;;;;;1.38;1.25;;;14.70;65.70;;;;;;4989221;28;20087;-80
2021/09/20 01:06:57;;;;;;;1.42;0.68;;;14.70;65.70;;;;;;4973484;28;20060;-79
2021/09/20 01:09:25;;;;;;;2.55;1.00;;;14.60;65.60;;;;;;4973123;28;20120;-80
2021/09/20 01:11:52;;;;;;;1.30;1.05;;;14.60;65.60;;;;;;4989791;28;20057;-79
2021/09/20 01:14:18;;;;;;;14.38;2.45;;;14.60;65.70;;;;;;4989727;28;20288;-79
2021/09/20 01:16:44;;;;;;;3.00;1.50;;;14.50;65.50;;;;;;4973763;28;20572;-79
2021/09/20 01:19:10;;;;;;;0.82;0.60;;;14.50;65.60;;;;;;4972883;28;20048;-80
2021/09/20 01:21:36;;;;;;;2.10;1.23;;;14.40;65.50;;;;;;4989095;28;20545;-79
2021/09/20 01:24:03;;;;;;;2.22;1.10;;;14.40;65.50;;;;;;4989270;28;20138;-79
2021/09/20 01:26:29;;;;;;;1.65;1.00;;;14.30;65.30;;;;;;4989049;28;20037;-79
2021/09/20 01:28:55;;;;;;;1.73;1.02;;;14.30;65.40;;;;;;4980683;28;20038;-79
2021/09/20 01:31:21;;;;;;;3.63;1.40;;;14.30;65.50;;;;;;4993115;28;20044;-80
2021/09/20 01:33:47;;;;;;;2.15;0.98;;;14.30;65.50;;;;;;4974023;28;20037;-80
2021/09/20 01:36:13;;;;;;;2.67;0.90;;;14.20;65.40;;;;;;4990712;28;20080;-80
2021/09/20 01:38:39;;;;;;;3.63;1.38;;;14.20;65.50;;;;;;4958458;28;20469;-80
2021/09/20 01:41:06;;;;;;;2.03;1.02;;;14.10;65.40;;;;;;5007002;28;20029;-77
2021/09/20 01:43:32;;;;;;;2.72;0.85;;;14.10;65.50;;;;;;4974830;28;20026;-79
2021/09/20 01:45:58;;;;;;;1.70;1.02;;;14.10;65.50;;;;;;4987699;28;20030;-79
2021/09/20 01:48:24;;;;;;;1.50;0.73;;;14.00;65.30;;;;;;4992027;28;20149;-79
2021/09/20 01:50:50;;;;;;;1.27;1.17;;;14.00;65.40;;;;;;4990138;28;20503;-79
2021/09/20 01:53:16;;;;;;;1.45;0.90;;;13.90;65.30;;;;;;4976086;28;20038;-79
2021/09/20 01:55:42;;;;;;;2.47;0.70;;;13.90;65.40;;;;;;4980418;28;20126;-79
2021/09/20 01:58:08;;;;;;;3.08;0.80;;;13.90;65.40;;;;;;4994128;28;20074;-80
2021/09/20 02:00:34;;;;;;;2.53;0.70;;;13.90;65.50;;;;;;4994820;28;20040;-79
2021/09/20 02:03:00;;;;;;;2.15;1.00;;;13.80;65.30;;;;;;4993961;28;20481;-80
2021/09/20 02:05:26;;;;;;;1.88;0.80;;;13.90;65.50;;;;;;4997406;28;20034;-79
2021/09/20 02:07:52;;;;;;;3.20;0.90;;;13.80;65.30;;;;;;5017159;28;20036;-80
2021/09/20 02:10:18;;;;;;;2.08;0.90;;;13.80;65.30;;;;;;5031573;28;20082;-80
2021/09/20 02:12:45;;;;;;;1.35;0.70;;;13.70;65.20;;;;;;5011597;28;20081;-80
2021/09/20 02:15:11;;;;;;;2.40;0.90;;;13.70;65.30;;;;;;4999814;28;20038;-80
2021/09/20 02:17:38;;;;;;;3.10;0.95;;;13.70;65.30;;;;;;4999006;28;20029;-80
2021/09/20 02:20:05;;;;;;;1.70;0.70;;;13.60;65.10;;;;;;4977641;28;20038;-79
2021/09/20 02:22:34;;;;;;;1.77;0.88;;;13.60;65.20;;;;;;4992993;28;20072;-80
2021/09/20 02:25:02;;;;;;;1.67;1.00;;;13.50;65.00;;;;;;4993552;28;20056;-80
2021/09/20 02:27:28;;;;;;;1.63;0.80;;;13.50;65.10;;;;;;4977028;28;20026;-79
2021/09/20 02:29:54;;;;;;;1.98;1.15;;;13.50;65.10;;;;;;4976530;28;20121;-79
2021/09/20 02:32:20;;;;;;;1.70;0.80;;;13.50;65.20;;;;;;4992779;28;20092;-79
2021/09/20 02:34:45;;;;;;;1.85;1.08;;;13.40;65.00;;;;;;5008860;28;20029;-79
2021/09/20 02:37:12;;;;;;;2.13;0.90;;;13.40;65.10;;;;;;4976955;28;20401;-79
2021/09/20 02:39:38;;;;;;;1.63;0.80;;;13.30;64.90;;;;;;4992477;28;20030;-80
2021/09/20 02:42:04;;;;;;;1.00;0.90;;;13.30;65.00;;;;;;4993055;28;20256;-80
2021/09/20 02:44:29;;;;;;;2.45;0.90;;;13.30;65.00;;;;;;4976961;28;20057;-81
2021/09/20 02:46:55;;;;;;;3.50;0.93;;;13.20;64.90;;;;;;4992650;28;20053;-80
2021/09/20 02:49:21;;;;;;;1.63;0.70;;;13.20;65.00;;;;;;5011088;28;20049;-79
2021/09/20 02:51:47;;;;;;;1.48;0.90;;;13.20;65.10;;;;;;5012845;28;20032;-80
2021/09/20 02:54:13;;;;;;;1.63;0.82;;;13.20;65.10;;;;;;4996534;28;20060;-80
2021/09/20 02:56:42;;;;;;;1.67;1.30;;;13.10;64.90;;;;;;5011916;28;20034;-80
2021/09/20 02:59:08;;;;;;;2.70;0.70;;;13.10;65.00;;;;;;4977035;28;20034;-81
2021/09/20 03:01:34;;;;;;;3.75;2.10;;;13.10;65.00;;;;;;4976447;28;20108;-80
2021/09/20 03:04:00;;;;;;;0.65;0.60;;;13.10;65.00;;;;;;4976822;28;20050;-79
2021/09/20 03:06:26;;;;;;;1.75;0.75;;;13.00;64.90;;;;;;4994303;28;20046;-79
2021/09/20 03:08:52;;;;;;;1.10;0.68;;;13.00;64.90;;;;;;4976924;28;20023;-80
2021/09/20 03:11:18;;;;;;;1.98;0.90;;;13.00;64.90;;;;;;4976430;28;20405;-79
2021/09/20 03:13:44;;;;;;;1.40;1.25;;;13.00;65.50;;;;;;4960653;28;20108;-80
2021/09/20 03:16:10;;;;;;;1.70;1.00;;;12.90;64.80;;;;;;4996905;28;20037;-80
2021/09/20 03:18:36;;;;;;;1.00;0.80;;;12.90;64.80;;;;;;4996286;28;20392;-80
2021/09/20 03:21:02;;;;;;;2.08;0.70;;;12.90;64.80;;;;;;5013731;28;20076;-80
2021/09/20 03:23:28;;;;;;;1.25;0.70;;;12.80;64.70;;;;;;4979980;28;20117;-79
2021/09/20 03:25:54;;;;;;;1.60;0.70;;;12.80;64.80;;;;;;5013745;28;20034;-80
2021/09/20 03:28:20;;;;;;;1.67;0.85;;;12.80;64.80;;;;;;4979816;28;20106;-80
2021/09/20 03:30:45;;;;;;;2.55;0.80;;;12.70;64.60;;;;;;4996002;28;20030;-79
2021/09/20 03:33:11;;;;;;;1.17;0.80;;;12.70;64.70;;;;;;4979167;28;20464;-80
2021/09/20 03:35:37;;;;;;;0.73;0.57;;;12.70;64.70;;;;;;4996166;28;20030;-79
2021/09/20 03:38:03;;;;;;;2.75;1.73;;;12.70;64.70;;;;;;4995670;28;20097;-80
2021/09/20 03:40:30;;;;;;;0.75;0.60;;;12.60;64.60;;;;;;5013186;28;20041;-80
2021/09/20 03:42:55;;;;;;;1.95;1.08;;;12.60;64.60;;;;;;5013009;28;20038;-80
2021/09/20 03:45:21;;;;;;;1.38;0.50;;;12.60;64.70;;;;;;4979077;28;20029;-80
2021/09/20 03:47:48;;;;;;;1.70;0.50;;;12.50;64.60;;;;;;4991522;28;20424;-79
2021/09/20 03:50:14;;;;;;;1.17;0.60;;;12.50;64.60;;;;;;4992291;28;20026;-79
2021/09/20 03:52:42;;;;;;;1.88;0.80;;;12.50;64.70;;;;;;4992291;28;20612;-79
2021/09/20 03:55:10;;;;;;;1.20;0.75;;;12.50;64.70;;;;;;4992462;28;20108;-79
2021/09/20 03:57:36;;;;;;;1.90;0.95;;;12.40;64.50;;;;;;4975769;28;20085;-79
2021/09/20 04:00:04;;;;;;;1.92;0.70;;;12.40;64.50;;;;;;4992150;28;20034;-80
2021/09/20 04:02:31;;;;;;;2.17;0.50;;;12.40;64.60;;;;;;4992009;28;20042;-80
2021/09/20 04:04:56;;;;;;;0.82;0.68;;;12.40;64.60;;;;;;4991644;28;20030;-80
2021/09/20 04:07:22;;;;;;;3.45;1.65;;;12.40;64.60;;;;;;4991910;28;20053;-80
2021/09/20 04:09:48;;;;;;;2.50;0.52;;;12.30;64.50;;;;;;4991938;28;20370;-79
2021/09/20 04:12:14;;;;;;;0.82;0.70;;;12.30;64.50;;;;;;4991725;28;20120;-80
2021/09/20 04:14:40;;;;;;;0.63;0.63;;;12.30;64.50;;;;;;4991788;28;20125;-80
2021/09/20 04:17:07;;;;;;;2.22;0.88;;;12.20;64.40;;;;;;4993077;28;20067;-80
2021/09/20 04:19:33;;;;;;;2.15;0.80;;;12.20;64.40;;;;;;4991856;28;20041;-81
2021/09/20 04:22:00;;;;;;;0.65;0.50;;;12.20;64.40;;;;;;4991773;28;20155;-80
2021/09/20 04:24:26;;;;;;;1.23;0.60;;;12.20;64.50;;;;;;4991708;28;20035;-80
2021/09/20 04:26:52;;;;;;;2.10;0.82;;;12.20;64.50;;;;;;4991735;28;20026;-80
2021/09/20 04:29:18;;;;;;;2.03;1.00;;;12.10;64.40;;;;;;4991347;28;20109;-81
2021/09/20 04:31:43;;;;;;;1.40;0.70;;;12.10;64.40;;;;;;4991930;28;20108;-82
2021/09/20 04:34:09;;;;;;;1.23;0.75;;;12.10;65.00;;;;;;4975159;28;20046;-81
2021/09/20 04:36:35;;;;;;;2.75;1.67;;;12.10;64.50;;;;;;4992864;28;20034;-82
2021/09/20 04:39:02;;;;;;;2.20;0.73;;;12.00;64.30;;;;;;4991208;28;20418;-79
2021/09/20 04:41:28;;;;;;;1.35;0.60;;;12.00;64.30;;;;;;4991071;28;20030;-80
2021/09/20 04:43:54;;;;;;;0.68;0.55;;;12.00;64.40;;;;;;4990774;28;20041;-81
2021/09/20 04:46:20;;;;;;;2.10;0.77;;;11.90;64.30;;;;;;4995314;28;20140;-81
2021/09/20 04:48:46;;;;;;;2.10;0.57;;;12.00;64.50;;;;;;5003650;28;20018;-80
2021/09/20 04:51:12;;;;;;;1.23;0.60;;;11.90;64.30;;;;;;5014651;28;20161;-79
2021/09/20 04:53:38;;;;;;;1.85;0.50;;;11.90;64.40;;;;;;4990586;28;20025;-80
2021/09/20 04:56:04;;;;;;;1.20;1.10;;;11.90;64.40;;;;;;5001851;28;20030;-79
2021/09/20 04:58:30;;;;;;;2.50;0.70;;;11.90;64.40;;;;;;4992310;28;20033;-80
2021/09/20 05:00:56;;;;;;;1.65;0.68;;;11.80;64.20;;;;;;4991631;28;20038;-78
2021/09/20 05:03:22;;;;;;;0.63;0.47;;;11.80;64.30;;;;;;4996725;28;20359;-80
2021/09/20 05:05:48;;;;;;;0.90;0.65;;;11.80;64.30;;;;;;4970325;28;20117;-78
2021/09/20 05:08:17;;;;;;;1.35;0.50;;;11.80;64.30;;;;;;4981675;28;20037;-80
2021/09/20 05:10:44;;;;;;;1.05;0.50;;;11.80;64.30;;;;;;4986455;28;20041;-79
2021/09/20 05:13:10;;;;;;;0.90;0.60;;;11.70;64.10;;;;;;4984916;28;20581;-79
2021/09/20 05:15:36;;;;;;;0.80;0.40;;;11.70;64.10;;;;;;4970098;28;20057;-78
2021/09/20 05:18:02;;;;;;;1.15;0.50;;;11.70;64.10;;;;;;4987263;28;20127;-79
2021/09/20 05:20:28;;;;;;;1.38;1.00;;;11.70;64.20;;;;;;4989286;28;20026;-78
2021/09/20 05:22:54;;;;;;;1.75;0.50;;;11.60;64.00;;;;;;4988746;28;20442;-78
2021/09/20 05:25:22;;;;;;;0.82;0.55;;;11.60;64.00;;;;;;4989765;28;20134;-78
2021/09/20 05:27:49;;;;;;;2.47;0.50;;;11.60;64.00;;;;;;4989501;28;20041;-80
2021/09/20 05:30:15;;;;;;;0.70;0.50;;;11.60;64.10;;;;;;4986572;28;20466;-79
2021/09/20 05:32:42;;;;;;;1.33;0.93;;;11.50;63.90;;;;;;5005455;28;20277;-80
2021/09/20 05:35:11;;;;;;;0.95;0.50;;;11.50;64.00;;;;;;4990475;28;20033;-80
2021/09/20 05:37:37;;;;;;;0.60;0.45;;;11.50;64.00;;;;;;4991883;28;20038;-80
2021/09/20 05:40:04;;;;;;;0.65;0.60;;;11.50;64.00;;;;;;4989640;28;20336;-80
2021/09/20 05:42:30;;;;;;;0.85;0.50;;;11.50;64.10;;;;;;4988605;28;20030;-80
2021/09/20 05:44:56;;;;;;;0.80;0.40;;;11.40;63.90;;;;;;4971528;28;20034;-80
2021/09/20 05:47:22;;;;;;;1.27;0.93;;;11.40;63.90;;;;;;5004421;28;20392;-80
2021/09/20 05:49:48;;;;;;;0.50;0.40;;;11.40;64.00;;;;;;4995771;28;20513;-80
2021/09/20 05:52:14;;;;;;;1.60;0.55;;;11.40;64.00;;;;;;4987041;28;20112;-80
2021/09/20 05:54:40;;;;;;;0.75;0.52;;;11.40;64.00;;;;;;4987206;28;20754;-80
2021/09/20 05:57:06;;;;;;;0.95;0.60;;;11.40;64.00;;;;;;4986036;28;20022;-80
2021/09/20 05:59:32;;;;;;;0.82;0.50;;;11.40;64.10;;;;;;4994740;28;20130;-79
2021/09/20 06:01:58;;;;;;;0.75;0.50;;;11.30;63.90;;;;;;4987989;28;20121;-79
2021/09/20 06:04:24;;;;;;;1.90;1.23;;;11.30;63.90;;;;;;5006724;28;20045;-82
2021/09/20 06:06:51;;;;;;;3.38;1.15;;;11.30;64.00;;;;;;4972961;28;20025;-79
2021/09/20 06:09:17;;;;;;;3.10;1.63;;;11.30;64.20;;;;;;5005255;28;20061;-79
2021/09/20 06:11:43;;;;;;;3.60;0.98;;;11.30;64.30;;;;;;5007224;28;20026;-81
2021/09/20 06:14:09;;;;;;;1.80;0.85;;;11.30;64.30;;;;;;4970521;28;20581;-81
2021/09/20 06:16:35;;;;;;;4.63;0.80;;;11.30;64.30;;;;;;4995380;28;20064;-83
2021/09/20 06:19:01;;;;;;;2.50;0.68;;;11.30;64.20;;;;;;4967562;28;20093;-82
2021/09/20 06:21:27;;;;;;;1.42;0.80;;;11.20;64.00;;;;;;4987416;28;20517;-83
2021/09/20 06:23:53;;;;;;;2.83;0.70;;;11.20;63.90;;;;;;4984419;28;20523;-81
2021/09/20 06:26:19;;;;;;;1.38;0.82;;;11.20;63.80;;;;;;5008681;28;20079;-81
2021/09/20 06:28:45;;;;;;;2.90;1.15;;;11.10;63.60;;;;;;4993043;28;20027;-83
2021/09/20 06:31:11;;;;;;;1.27;0.90;;;11.10;63.60;;;;;;4996335;28;20131;-84
2021/09/20 06:33:37;;;;;;;4.25;1.00;;;11.10;63.60;;;;;;5005363;28;20481;-82
2021/09/20 06:36:03;;;;;;;1.48;0.65;;;11.10;63.60;;;;;;4992577;28;20036;-81
2021/09/20 06:38:29;;;;;;;2.10;0.65;;;11.10;63.60;;;;;;4976135;28;20060;-82
2021/09/20 06:40:55;;;;;;;0.60;0.40;;;11.00;63.40;;;;;;4992328;28;20022;-81
2021/09/20 06:43:21;;;;;;;2.25;0.85;;;11.00;63.40;;;;;;5004087;28;20030;-81
2021/09/20 06:45:47;;;;;;;1.15;0.60;;;11.00;63.40;;;;;;4976493;28;20060;-81
2021/09/20 06:48:13;;;;;;;1.05;0.60;;;11.00;63.40;;;;;;4975541;28;20624;-83
2021/09/20 06:50:40;;;;;;;3.60;0.60;;;11.00;63.50;;;;;;4989645;28;20036;-81
2021/09/20 06:53:06;;;;;;;0.50;0.40;;;11.00;63.60;;;;;;4998225;28;20231;-81
2021/09/20 06:55:32;;;;;;;2.03;0.60;;;11.00;63.60;;;;;;4982832;28;20406;-80
2021/09/20 06:58:01;;;;;;;1.00;0.40;;;11.00;63.60;;;;;;4982104;28;20113;-81
2021/09/20 07:00:28;;;;;;;0.57;0.43;;;11.00;63.70;;;;;;5001254;28;20112;-82
2021/09/20 07:02:54;;;;;;;1.52;0.60;;;11.00;63.80;;;;;;4998202;28;20038;-82
2021/09/20 07:05:21;;;;;;;1.23;0.60;;;11.00;63.90;;;;;;4983083;28;20030;-81
2021/09/20 07:07:47;;;;;;;2.17;0.73;;;11.00;63.90;;;;;;4974883;28;20492;-81
2021/09/20 07:10:14;;;;;;;2.70;0.90;;;11.10;64.10;;;;;;4986951;28;20033;-81
2021/09/20 07:12:41;;;;;;;1.98;0.98;;;11.10;64.20;;;;;;4984371;28;20045;-82
2021/09/20 07:15:09;;;;;;;1.77;0.80;;;11.10;64.20;;;;;;5003044;28;20536;-81
2021/09/20 07:17:35;;;;;;;3.05;0.90;;;11.10;64.20;;;;;;5016718;28;20026;-82
2021/09/20 07:20:02;;;;;;;1.73;0.90;;;11.10;64.30;;;;;;5018763;28;20026;-81
2021/09/20 07:22:28;;;;;;;4.45;0.80;;;11.10;64.40;;;;;;5007620;28;20030;-82
2021/09/20 07:24:54;;;;;;;2.95;0.82;;;11.10;64.50;;;;;;5011057;28;20030;-81
2021/09/20 07:27:21;;;;;;;1.50;0.93;;;11.20;64.80;;;;;;4974168;28;20044;-80
2021/09/20 07:29:47;;;;;;;2.83;1.23;;;11.20;64.90;;;;;;4999933;28;20051;-79
2021/09/20 07:32:13;;;;;;;3.15;1.05;;;11.20;65.00;;;;;;4967314;28;20026;-81
2021/09/20 07:34:39;;;;;;;5.47;1.40;;;11.30;65.30;;;;;;4972189;28;20041;-81
2021/09/20 07:37:05;;;;;;;4.07;1.20;;;11.30;65.40;;;;;;4989381;28;20133;-81
2021/09/20 07:39:32;;;;;;;1.48;1.30;;;11.30;65.50;;;;;;4989959;28;20034;-82
2021/09/20 07:41:59;;;;;;;2.85;1.20;;;11.40;65.80;;;;;;4989017;28;20026;-82
2021/09/20 07:44:25;;;;;;;4.68;1.70;;;11.40;65.90;;;;;;4998625;28;20022;-82
2021/09/20 07:46:51;;;;;;;3.80;1.63;;;11.40;66.00;;;;;;4982664;28;20394;-82
2021/09/20 07:49:17;;;;;;;6.65;1.67;;;11.50;66.40;;;;;;4995747;28;20133;-81
2021/09/20 07:51:43;;;;;;;5.13;1.95;;;11.50;66.50;;;;;;4982759;28;20152;-82
2021/09/20 07:54:09;;;;;;;5.47;1.70;;;11.60;66.80;;;;;;4972383;28;20049;-82
2021/09/20 07:56:35;;;;;;;2.67;1.60;;;11.70;67.20;;;;;;4963311;28;20623;-81
2021/09/20 07:59:02;;;;;;;3.78;1.60;;;11.70;67.30;;;;;;4985182;28;20124;-81
2021/09/20 08:01:29;;;;;;;3.08;1.52;;;11.80;67.60;;;;;;4991954;28;20052;-82
2021/09/20 08:03:55;;;;;;;6.10;1.67;;;11.80;67.70;;;;;;4974441;28;20041;-84
2021/09/20 08:06:23;;;;;;;2.88;2.00;;;11.90;68.00;;;;;;4993268;28;20369;-83
2021/09/20 08:08:50;;;;;;;5.20;1.92;;;11.90;68.10;;;;;;4984212;28;20248;-84
2021/09/20 08:11:16;;;;;;;3.17;1.52;;;12.00;68.40;;;;;;4975320;28;20034;-83
2021/09/20 08:13:42;;;;;;;3.05;1.60;;;12.00;68.50;;;;;;4999712;28;20042;-83
2021/09/20 08:16:08;;;;;;;5.10;1.67;;;12.10;69.40;;;;;;4992733;28;20088;-82
2021/09/20 08:18:34;;;;;;;7.60;1.73;;;12.10;69.00;;;;;;4981480;28;20030;-82
2021/09/20 08:21:00;;;;;;;2.97;1.90;;;12.20;69.40;;;;;;4972413;28;20088;-82
2021/09/20 08:23:26;;;;;;;5.13;2.00;;;12.30;69.70;;;;;;4972946;28;20041;-83
2021/09/20 08:25:53;;;;;;;7.05;2.00;;;12.40;70.00;;;;;;4955429;28;20445;-83
2021/09/20 08:28:19;;;;;;;3.70;2.33;;;12.50;70.30;;;;;;4979108;28;20421;-83
2021/09/20 08:30:45;;;;;;;4.90;2.22;;;12.50;70.40;;;;;;5007289;28;20029;-83
2021/09/20 08:33:11;;;;;;;8.38;3.47;;;12.60;70.70;;;;;;4989772;28;20041;-83
2021/09/20 08:35:37;;;;;;;7.07;2.00;;;12.70;70.80;;;;;;4982317;28;20524;-81
2021/09/20 08:38:03;;;;;;;4.60;1.95;;;12.80;71.10;;;;;;4994752;28;20057;-81
2021/09/20 08:40:30;;;;;;;4.72;1.90;;;12.90;71.40;;;;;;4996728;28;20205;-81
2021/09/20 08:42:57;;;;;;;3.95;1.98;;;12.90;71.40;;;;;;4997305;28;20018;-82
2021/09/20 08:45:25;;;;;;;5.50;2.28;;;13.00;71.50;;;;;;4981597;28;20036;-82
2021/09/20 08:47:52;;;;;;;6.65;1.75;;;13.00;71.40;;;;;;5000832;28;20038;-81
2021/09/20 08:50:28;;;;;;;4.63;1.65;;;13.10;71.50;;;;;;4981213;28;20036;-80
2021/09/20 08:52:55;;;;;;;3.70;1.80;;;13.20;71.60;;;;;;4984256;28;20551;-81
2021/09/20 08:55:21;;;;;;;2.70;1.38;;;13.20;71.50;;;;;;4963795;28;20057;-81
2021/09/20 08:57:48;;;;;;;3.80;2.00;;;13.30;71.50;;;;;;4980584;28;20069;-81
2021/09/20 09:00:15;;;;;;;3.63;1.35;;;13.30;71.40;;;;;;4970813;28;20058;-80
2021/09/20 09:02:41;;;;;;;4.43;1.60;;;13.40;71.60;;;;;;4975773;28;20065;-81
2021/09/20 09:05:19;;;;;;;6.78;2.22;;;13.40;71.40;;;;;;4984941;28;20026;-80
2021/09/20 09:07:51;;;;;;;9.20;2.17;;;13.40;71.40;;;;;;4998256;28;20080;-80
2021/09/20 09:10:18;;;;;;;5.18;2.53;;;13.50;71.50;;;;;;4996394;28;20430;-80
2021/09/20 09:12:44;;;;;;;4.40;1.65;;;13.60;71.60;;;;;;4978439;28;20033;-81
2021/09/20 09:15:13;;;;;;;3.00;1.20;;;13.60;71.40;;;;;;4978412;28;20064;-80
2021/09/20 09:17:42;;;;;;;4.35;1.85;;;13.70;71.60;;;;;;4987794;28;20030;-80
2021/09/20 09:20:15;;;;;;;3.72;1.77;;;13.70;71.40;;;;;;4995749;28;20140;-80
2021/09/20 09:22:52;;;;;;;;;;;13.80;71.50;;;;;;4998736;28;20332;-80
2021/09/20 09:25:22;;;;;;;3.65;1.40;;;13.80;71.30;;;;;;5010415;28;19917;-80
2021/09/20 09:27:51;;;;;;;3.35;1.08;;;13.90;71.30;;;;;;4972577;28;20037;-80
2021/09/20 09:30:24;;;;;;;4.68;1.50;;;14.00;71.40;;;;;;4982825;28;20022;-80
2021/09/20 09:33:24;;;;;;;5.38;1.60;;;14.10;71.50;;;;;;4979633;28;20026;-80
2021/09/20 09:35:55;;;;;;;4.70;1.27;;;14.10;71.30;;;;;;4971636;28;20206;-79
2021/09/20 09:38:21;;;;;;;3.33;0.98;;;14.20;71.30;;;;;;4978397;28;20032;-81
2021/09/20 09:40:47;;;;;;;5.38;1.60;;;14.20;71.20;;;;;;4993624;28;20084;-80
2021/09/20 09:43:23;;;;;;;5.90;2.03;;;14.30;71.40;;;;;;4981822;28;20038;-81
2021/09/20 09:45:50;;;;;;;3.38;1.38;;;14.40;71.70;;;;;;4979107;28;20593;-80
2021/09/20 09:48:18;;;;;;;4.60;1.63;;;14.50;71.80;;;;;;4982023;28;20046;-80
2021/09/20 09:50:51;;;;;;;2.83;1.70;;;14.60;71.90;;;;;;5002689;28;20030;-79
2021/09/20 09:53:34;;;;;;;6.18;1.50;;;14.60;71.90;;;;;;5007010;28;20040;-79
2021/09/20 09:56:07;;;;;;;5.00;2.00;;;14.70;72.00;;;;;;5019527;28;20045;-81
2021/09/20 09:58:33;;;;;;;10.18;3.33;;;14.80;71.90;;;;;;5001731;28;20030;-81
2021/09/20 10:01:21;;;;;;;5.75;1.45;;;14.90;71.80;;;;;;4955646;28;20114;-80
2021/09/20 10:04:06;;;;;;;5.18;1.67;;;15.00;71.80;;;;;;4995447;28;20528;-81
2021/09/20 10:06:42;;;;;;;3.50;1.50;;;15.00;71.60;;;;;;4975142;28;20045;-81
2021/09/20 10:09:09;;;;;;;3.45;1.27;;;15.10;71.50;;;;;;4995489;28;20489;-81
2021/09/20 10:11:36;;;;;;;6.20;1.33;;;15.20;71.40;;;;;;4971240;28;20354;-80
2021/09/20 10:14:02;;;;;;;6.68;1.38;;;15.20;71.20;;;;;;4975062;28;20045;-80
2021/09/20 10:16:31;;;;;;;4.00;1.58;;;15.30;71.20;;;;;;4990972;28;20030;-80
2021/09/20 10:19:00;;;;;;;4.78;2.10;;;15.30;71.00;;;;;;4968617;28;20149;-81
2021/09/20 10:21:26;;;;;;;2.95;0.90;;;15.40;71.00;;;;;;4993645;28;20112;-81
2021/09/20 10:23:54;;;;;;;3.85;1.27;;;15.40;70.70;;;;;;5003734;28;20044;-81
2021/09/20 10:26:21;;;;;;;5.07;1.00;;;15.60;70.90;;;;;;5006896;28;20124;-80
2021/09/20 10:28:52;;;;;;;3.28;0.98;;;15.60;70.70;;;;;;4993971;28;20026;-83
2021/09/20 10:31:19;;;;;;;3.80;0.70;;;15.60;70.40;;;;;;4981722;28;20292;-80
2021/09/20 10:33:46;;;;;;;3.08;1.10;;;15.70;70.40;;;;;;4994597;28;20153;-80
2021/09/20 10:36:13;;;;;;;3.25;0.93;;;15.80;70.30;;;;;;4998472;28;20041;-80
2021/09/20 10:38:49;;;;;;;7.22;1.23;;;15.90;70.30;;;;;;4984662;28;20512;-79
2021/09/20 10:41:18;;;;;;;2.60;1.10;;;15.90;70.20;;;;;;4978022;28;20030;-78
2021/09/20 10:44:04;;;;;;;3.20;1.30;;;16.00;70.50;;;;;;4997070;28;20054;-78
2021/09/20 10:46:33;;;;;;;3.30;1.02;;;16.10;70.60;;;;;;4998981;28;20121;-78
2021/09/20 10:49:03;;;;;;;3.53;1.20;;;16.20;70.70;;;;;;4973039;28;20558;-78
2021/09/20 10:51:36;;;;;;;4.43;1.73;;;16.20;70.60;;;;;;4985494;28;20030;-78
2021/09/20 10:54:25;;;;;;;2.50;1.20;;;16.30;70.70;;;;;;4996600;28;20571;-78
2021/09/20 10:57:12;;;;;;;5.80;2.63;;;16.40;70.70;;;;;;4972862;28;20033;-80
2021/09/20 10:59:39;;;;;;;6.70;1.25;;;16.50;70.70;;;;;;4989571;28;20328;-79
2021/09/20 11:02:11;;;;;;;3.47;1.30;;;16.50;70.60;;;;;;4980598;28;20375;-80
2021/09/20 11:04:40;;;;;;;5.00;1.98;;;16.60;70.60;;;;;;4954839;28;20037;-79
2021/09/20 11:07:16;;;;;;;3.88;1.40;;;16.60;70.50;;;;;;4987754;28;20053;-78
2021/09/20 11:09:46;;;;;;;3.65;1.30;;;16.70;70.60;;;;;;4974136;28;20034;-79
2021/09/20 11:12:23;;;;;;;2.15;1.30;;;16.70;70.40;;;;;;4992250;28;20419;-80
2021/09/20 11:14:58;;;;;;;3.22;1.40;;;16.80;71.00;;;;;;4994451;28;20470;-79
2021/09/20 11:17:40;;;;;;;2.78;1.05;;;16.90;70.40;;;;;;4977389;28;20489;-79
2021/09/20 11:20:30;;;;;;;4.90;1.77;;;16.90;70.20;;;;;;4988912;28;20292;-79
2021/09/20 11:23:23;;;;;;;3.92;1.25;;;17.00;70.20;;;;;;4988967;28;20386;-77
2021/09/20 11:26:11;;;;;;;1.90;0.77;;;17.10;70.20;;;;;;4971550;28;20034;-78
2021/09/20 11:28:40;;;;;;;2.00;1.00;;;17.10;70.00;;;;;;4988490;28;20031;-79
2021/09/20 11:31:06;;;;;;;3.47;1.02;;;17.20;70.00;;;;;;4992528;28;20058;-78
2021/09/20 11:33:47;;;;;;;2.60;1.05;;;17.20;69.80;;;;;;4997137;28;20038;-79
2021/09/20 11:36:18;;;;;;;1.73;1.10;;;17.30;69.80;;;;;;4993060;28;20034;-79
2021/09/20 11:38:44;;;;;;;2.50;0.90;;;17.40;69.80;;;;;;4980618;28;20045;-79
2021/09/20 11:41:21;;;;;;;2.20;0.80;;;17.40;69.70;;;;;;4973354;28;20058;-79
2021/09/20 11:43:48;;;;;;;3.65;1.27;;;17.40;69.50;;;;;;4967797;28;20038;-79
2021/09/20 11:46:19;;;;;;;3.10;0.80;;;17.50;69.60;;;;;;5006863;28;20030;-79
2021/09/20 11:48:45;;;;;;;1.42;0.85;;;17.50;69.30;;;;;;5023870;28;20053;-80
2021/09/20 11:51:11;;;;;;;3.10;1.10;;;17.60;69.40;;;;;;5024547;28;20025;-78
2021/09/20 11:53:37;;;;;;;2.40;1.20;;;17.70;69.40;;;;;;5006250;28;20050;-79
2021/09/20 11:56:03;;;;;;;3.15;1.20;;;17.70;69.20;;;;;;4992253;28;20044;-79
2021/09/20 11:58:29;;;;;;;2.60;1.08;;;17.70;69.10;;;;;;5008729;28;20038;-78
2021/09/20 12:00:55;;;;;;;1.77;0.70;;;17.80;69.10;;;;;;4992679;28;20041;-79
2021/09/20 12:03:25;;;;;;;5.95;1.42;;;17.80;68.90;;;;;;4990513;28;20030;-78
2021/09/20 12:05:51;;;;;;;2.63;0.88;;;17.90;68.90;;;;;;5006576;28;20033;-78
2021/09/20 12:08:22;;;;;;;4.03;1.05;;;17.90;68.80;;;;;;5015390;28;20068;-80
2021/09/20 12:10:54;;;;;;;3.50;0.98;;;18.00;68.70;;;;;;4996588;28;20064;-80
2021/09/20 12:13:31;;;;;;;1.75;0.70;;;18.10;68.70;;;;;;5007024;28;20072;-80
2021/09/20 12:16:05;;;;;;;7.20;1.50;;;18.10;68.60;;;;;;5006149;28;20036;-79
2021/09/20 12:18:31;;;;;;;2.78;1.17;;;18.10;68.30;;;;;;5026456;28;20052;-80
2021/09/20 12:21:04;;;;;;;3.85;1.42;;;18.20;68.40;;;;;;4984830;28;20050;-80
2021/09/20 12:23:36;;;;;;;2.70;0.95;;;18.20;68.10;;;;;;5013678;28;20072;-79
2021/09/20 12:26:05;;;;;;;3.17;0.73;;;18.30;68.20;;;;;;4987537;28;20055;-78
2021/09/20 12:28:38;;;;;;;3.63;1.08;;;18.40;68.20;;;;;;5002182;28;20036;-79
2021/09/20 12:31:04;;;;;;;2.83;0.95;;;18.50;68.10;;;;;;5001031;28;20049;-77
2021/09/20 12:33:51;;;;;;;2.25;0.70;;;18.50;68.00;;;;;;5003507;28;20072;-79
2021/09/20 12:36:40;;;;;;;2.45;1.17;;;18.60;67.80;;;;;;5002726;28;20097;-80
2021/09/20 12:39:24;;;;;;;0.88;0.60;;;18.70;67.90;;;;;;4985747;28;20041;-81
2021/09/20 12:42:01;;;;;;;1.77;0.82;;;18.70;67.60;;;;;;5001743;28;20117;-80
2021/09/20 12:44:39;;;;;;;3.10;0.70;;;18.80;67.60;;;;;;4999180;28;20061;-81
2021/09/20 12:47:12;;;;;;;2.20;0.80;;;18.90;67.60;;;;;;4994115;28;20046;-81
2021/09/20 12:49:39;;;;;;;2.45;1.27;;;19.00;67.70;;;;;;5003022;28;20085;-80
2021/09/20 12:52:23;;;;;;;2.38;0.95;;;19.10;67.70;;;;;;5003502;28;20128;-80